sensor_id;sensor_type;location;lat;lon;timestamp;pressure;altitude;pressure_sealevel;temperature;humidity
9419;BME280;4748;50.802;7.132;2023-05-11T00:01:11;100805.84;;;14.18;100.00
9419;BME280;4748;50.802;7.132;2023-05-11T00:03:36;100799.56;;;14.01;100.00
9419;BME280;4748;50.802;7.132;2023-05-11T00:06:02;100809.38;;;14.07;100.00
9419;BME280;4748;50.802;7.132;2023-05-11T00:08:28;100813.25;;;14.00;100.00
9419;BME280;4748;50.802;7.132;2023-05-11T00:10:53;100814.06;;;14.00;100.00
9419;BME280;4748;50.802;7.132;2023-05-11T00:13:19;100810.19;;;13.96;100.00
9419;BME280;4748;50.802;7.132;2023-05-11T00:15:45;100817.34;;;14.02;100.00
9419;BME280;4748;50.802;7.132;2023-05-11T00:18:10;100815.22;;;14.04;100.00
9419;BME280;4748;50.802;7.132;2023-05-11T00:20:35;100808.91;;;14.10;100.00
9419;BME280;4748;50.802;7.132;2023-05-11T00:23:01;100808.34;;;14.08;100.00
9419;BME280;4748;50.802;7.132;2023-05-11T00:25:26;100810.44;;;14.06;100.00
9419;BME280;4748;50.802;7.132;2023-05-11T00:27:51;100816.88;;;14.05;100.00
9419;BME280;4748;50.802;7.132;2023-05-11T00:30:17;100809.38;;;14.07;100.00
9419;BME280;4748;50.802;7.132;2023-05-11T00:32:43;100807.63;;;14.01;100.00
9419;BME280;4748;50.802;7.132;2023-05-11T00:35:11;100807.03;;;13.99;100.00
9419;BME280;4748;50.802;7.132;2023-05-11T00:37:37;100803.78;;;13.97;100.00
9419;BME280;4748;50.802;7.132;2023-05-11T00:40:03;100798.97;;;13.88;100.00
9419;BME280;4748;50.802;7.132;2023-05-11T00:42:29;100804.00;;;13.96;100.00
9419;BME280;4748;50.802;7.132;2023-05-11T00:44:54;100792.56;;;13.89;100.00
9419;BME280;4748;50.802;7.132;2023-05-11T00:47:19;100789.03;;;14.00;100.00
9419;BME280;4748;50.802;7.132;2023-05-11T00:49:45;100795.69;;;13.97;100.00
9419;BME280;4748;50.802;7.132;2023-05-11T00:52:11;100793.56;;;13.99;100.00
9419;BME280;4748;50.802;7.132;2023-05-11T00:54:38;100788.22;;;13.88;100.00
9419;BME280;4748;50.802;7.132;2023-05-11T00:57:03;100797.38;;;13.76;100.00
9419;BME280;4748;50.802;7.132;2023-05-11T00:59:29;100789.53;;;13.85;100.00
9419;BME280;4748;50.802;7.132;2023-05-11T01:01:54;100795.88;;;13.79;100.00
9419;BME280;4748;50.802;7.132;2023-05-11T01:04:20;100794.44;;;13.88;100.00
9419;BME280;4748;50.802;7.132;2023-05-11T01:10:01;100798.53;;;13.91;100.00
9419;BME280;4748;50.802;7.132;2023-05-11T01:13:18;100800.06;;;13.87;100.00
9419;BME280;4748;50.802;7.132;2023-05-11T01:15:47;100807.97;;;13.93;100.00
9419;BME280;4748;50.802;7.132;2023-05-11T01:18:19;100811.88;;;13.86;100.00
9419;BME280;4748;50.802;7.132;2023-05-11T01:20:48;100804.75;;;13.80;100.00
9419;BME280;4748;50.802;7.132;2023-05-11T01:23:42;100808.00;;;13.82;100.00
9419;BME280;4748;50.802;7.132;2023-05-11T01:26:33;100808.47;;;13.90;100.00
9419;BME280;4748;50.802;7.132;2023-05-11T01:31:47;100809.41;;;13.84;100.00
9419;BME280;4748;50.802;7.132;2023-05-11T01:34:24;100805.47;;;13.64;100.00
9419;BME280;4748;50.802;7.132;2023-05-11T01:36:55;100794.38;;;13.49;100.00
9419;BME280;4748;50.802;7.132;2023-05-11T01:39:35;100801.16;;;13.63;100.00
9419;BME280;4748;50.802;7.132;2023-05-11T01:42:08;100797.03;;;13.72;100.00
9419;BME280;4748;50.802;7.132;2023-05-11T01:44:34;100797.63;;;13.74;100.00
9419;BME280;4748;50.802;7.132;2023-05-11T01:47:02;100796.56;;;13.75;100.00
9419;BME280;4748;50.802;7.132;2023-05-11T01:49:32;100800.31;;;13.74;100.00
9419;BME280;4748;50.802;7.132;2023-05-11T01:52:01;100801.03;;;13.70;100.00
9419;BME280;4748;50.802;7.132;2023-05-11T01:54:29;100800.91;;;13.65;100.00
9419;BME280;4748;50.802;7.132;2023-05-11T01:56:56;100800.91;;;13.65;100.00
9419;BME280;4748;50.802;7.132;2023-05-11T01:59:24;100806.97;;;13.72;100.00
9419;BME280;4748;50.802;7.132;2023-05-11T02:01:50;100806.41;;;13.70;100.00
9419;BME280;4748;50.802;7.132;2023-05-11T02:04:17;100804.38;;;13.76;100.00
9419;BME280;4748;50.802;7.132;2023-05-11T02:06:46;100803.00;;;13.74;100.00
9419;BME280;4748;50.802;7.132;2023-05-11T02:09:15;100804.53;;;13.59;100.00
9419;BME280;4748;50.802;7.132;2023-05-11T02:11:42;100797.25;;;13.71;100.00
9419;BME280;4748;50.802;7.132;2023-05-11T02:14:09;100809.66;;;13.72;100.00
9419;BME280;4748;50.802;7.132;2023-05-11T02:16:36;100803.94;;;13.68;100.00
9419;BME280;4748;50.802;7.132;2023-05-11T02:19:03;100800.06;;;13.76;100.00
9419;BME280;4748;50.802;7.132;2023-05-11T02:21:30;100799.00;;;13.76;100.00
9419;BME280;4748;50.802;7.132;2023-05-11T02:23:57;100801.38;;;13.73;100.00
9419;BME280;4748;50.802;7.132;2023-05-11T02:26:24;100803.94;;;13.79;100.00
9419;BME280;4748;50.802;7.132;2023-05-11T02:28:49;100805.47;;;13.76;100.00
9419;BME280;4748;50.802;7.132;2023-05-11T02:31:21;100810.94;;;13.80;100.00
9419;BME280;4748;50.802;7.132;2023-05-11T02:33:50;100804.38;;;13.76;100.00
9419;BME280;4748;50.802;7.132;2023-05-11T02:36:20;100806.41;;;13.70;100.00
9419;BME280;4748;50.802;7.132;2023-05-11T02:38:47;100802.66;;;13.71;100.00
9419;BME280;4748;50.802;7.132;2023-05-11T02:41:17;100805.00;;;13.67;100.00
9419;BME280;4748;50.802;7.132;2023-05-11T02:43:48;100808.97;;;13.65;100.00
9419;BME280;4748;50.802;7.132;2023-05-11T02:46:19;100805.13;;;13.61;100.00
9419;BME280;4748;50.802;7.132;2023-05-11T02:48:50;100801.72;;;13.54;100.00
9419;BME280;4748;50.802;7.132;2023-05-11T02:51:18;100804.53;;;13.59;100.00
9419;BME280;4748;50.802;7.132;2023-05-11T02:53:47;100808.41;;;13.51;100.00
9419;BME280;4748;50.802;7.132;2023-05-11T02:56:14;100804.88;;;13.51;100.00
9419;BME280;4748;50.802;7.132;2023-05-11T02:58:40;100803.28;;;13.50;100.00
9419;BME280;4748;50.802;7.132;2023-05-11T03:01:06;100802.31;;;13.56;100.00
9419;BME280;4748;50.802;7.132;2023-05-11T03:03:31;100805.25;;;13.43;100.00
9419;BME280;4748;50.802;7.132;2023-05-11T03:05:57;100796.59;;;13.41;100.00
9419;BME280;4748;50.802;7.132;2023-05-11T03:08:22;100803.47;;;13.48;100.00
9419;BME280;4748;50.802;7.132;2023-05-11T03:10:49;100799.16;;;13.59;100.00
9419;BME280;4748;50.802;7.132;2023-05-11T03:13:15;100799.16;;;13.59;100.00
9419;BME280;4748;50.802;7.132;2023-05-11T03:15:41;100809.44;;;13.62;100.00
9419;BME280;4748;50.802;7.132;2023-05-11T03:18:07;100802.78;;;13.64;100.00
9419;BME280;4748;50.802;7.132;2023-05-11T03:20:37;100795.19;;;13.61;100.00
9419;BME280;4748;50.802;7.132;2023-05-11T03:23:06;100792.38;;;13.56;100.00
9419;BME280;4748;50.802;7.132;2023-05-11T03:25:32;100793.88;;;13.52;100.00
9419;BME280;4748;50.802;7.132;2023-05-11T03:27:59;100792.84;;;13.53;100.00
9419;BME280;4748;50.802;7.132;2023-05-11T03:30:26;100796.34;;;13.54;100.00
9419;BME280;4748;50.802;7.132;2023-05-11T03:32:52;100789.34;;;13.53;100.00
9419;BME280;4748;50.802;7.132;2023-05-11T03:35:19;100795.88;;;13.57;100.00
9419;BME280;4748;50.802;7.132;2023-05-11T03:37:46;100794.81;;;13.58;100.00
9419;BME280;4748;50.802;7.132;2023-05-11T03:40:13;100795.44;;;13.60;100.00
9419;BME280;4748;50.802;7.132;2023-05-11T03:42:41;100794.47;;;13.66;100.00
9419;BME280;4748;50.802;7.132;2023-05-11T03:45:07;100797.41;;;13.64;100.00
9419;BME280;4748;50.802;7.132;2023-05-11T03:47:34;100789.91;;;13.66;100.00
9419;BME280;4748;50.802;7.132;2023-05-11T03:50:02;100786.28;;;13.61;100.00
9419;BME280;4748;50.802;7.132;2023-05-11T03:52:28;100786.16;;;13.67;100.00
9419;BME280;4748;50.802;7.132;2023-05-11T03:54:55;100793.06;;;13.63;100.00
9419;BME280;4748;50.802;7.132;2023-05-11T03:57:24;100792.47;;;13.73;100.00
9419;BME280;4748;50.802;7.132;2023-05-11T03:59:50;100789.19;;;13.71;100.00
9419;BME280;4748;50.802;7.132;2023-05-11T04:02:15;100788.94;;;13.72;100.00
9419;BME280;4748;50.802;7.132;2023-05-11T04:04:41;100780.66;;;13.62;100.00
9419;BME280;4748;50.802;7.132;2023-05-11T04:07:06;100773.31;;;13.58;100.00
9419;BME280;4748;50.802;7.132;2023-05-11T04:09:31;100779.41;;;13.53;100.00
9419;BME280;4748;50.802;7.132;2023-05-11T04:11:57;100783.25;;;13.57;100.00
9419;BME280;4748;50.802;7.132;2023-05-11T04:14:22;100784.88;;;13.58;100.00
9419;BME280;4748;50.802;7.132;2023-05-11T04:16:47;100783.25;;;13.57;100.00
9419;BME280;4748;50.802;7.132;2023-05-11T04:19:13;100781.28;;;13.53;100.00
9419;BME280;4748;50.802;7.132;2023-05-11T04:21:38;100782.31;;;13.52;100.00
9419;BME280;4748;50.802;7.132;2023-05-11T04:24:04;100780.56;;;13.57;100.00
9419;BME280;4748;50.802;7.132;2023-05-11T04:26:30;100782.31;;;13.52;100.00
9419;BME280;4748;50.802;7.132;2023-05-11T04:28:55;100784.78;;;13.53;100.00
9419;BME280;4748;50.802;7.132;2023-05-11T04:31:21;100787.22;;;13.55;100.00
9419;BME280;4748;50.802;7.132;2023-05-11T04:33:46;100794.50;;;13.54;100.00
9419;BME280;4748;50.802;7.132;2023-05-11T04:36:11;100797.66;;;13.51;100.00
9419;BME280;4748;50.802;7.132;2023-05-11T04:38:37;100799.03;;;13.54;100.00
9419;BME280;4748;50.802;7.132;2023-05-11T04:41:03;100799.84;;;13.66;100.00
9419;BME280;4748;50.802;7.132;2023-05-11T04:43:29;100799.84;;;13.66;100.00
9419;BME280;4748;50.802;7.132;2023-05-11T04:45:54;100799.38;;;13.69;100.00
9419;BME280;4748;50.802;7.132;2023-05-11T04:48:20;100808.16;;;13.64;100.00
9419;BME280;4748;50.802;7.132;2023-05-11T04:50:45;100809.44;;;13.73;100.00
9419;BME280;4748;50.802;7.132;2023-05-11T04:53:10;100807.44;;;13.80;100.00
9419;BME280;4748;50.802;7.132;2023-05-11T04:55:35;100815.28;;;13.81;100.00
9419;BME280;4748;50.802;7.132;2023-05-11T04:58:01;100821.34;;;13.88;100.00
9419;BME280;4748;50.802;7.132;2023-05-11T05:00:26;100816.66;;;13.95;100.00
9419;BME280;4748;50.802;7.132;2023-05-11T05:02:52;100822.38;;;13.99;100.00
9419;BME280;4748;50.802;7.132;2023-05-11T05:05:17;100819.91;;;13.97;100.00
9419;BME280;4748;50.802;7.132;2023-05-11T05:07:42;100822.84;;;14.07;100.00
9419;BME280;4748;50.802;7.132;2023-05-11T05:10:08;100828.94;;;14.03;100.00
9419;BME280;4748;50.802;7.132;2023-05-11T05:12:35;100830.81;;;14.02;100.00
9419;BME280;4748;50.802;7.132;2023-05-11T05:15:01;100835.34;;;14.13;100.00
9419;BME280;4748;50.802;7.132;2023-05-11T05:17:26;100837.22;;;14.24;100.00
9419;BME280;4748;50.802;7.132;2023-05-11T05:19:52;100835.56;;;14.23;100.00
9419;BME280;4748;50.802;7.132;2023-05-11T05:22:17;100835.59;;;14.12;100.00
9419;BME280;4748;50.802;7.132;2023-05-11T05:24:42;100847.44;;;14.11;100.00
9419;BME280;4748;50.802;7.132;2023-05-11T05:27:08;100843.66;;;14.23;100.00
9419;BME280;4748;50.802;7.132;2023-05-11T05:29:33;100849.63;;;14.25;100.00
9419;BME280;4748;50.802;7.132;2023-05-11T05:31:58;100854.53;;;14.28;100.00
9419;BME280;4748;50.802;7.132;2023-05-11T05:34:24;100851.25;;;14.26;100.00
9419;BME280;4748;50.802;7.132;2023-05-11T05:36:49;100849.34;;;14.38;100.00
9419;BME280;4748;50.802;7.132;2023-05-11T05:39:15;100855.19;;;14.46;100.00
9419;BME280;4748;50.802;7.132;2023-05-11T05:41:40;100850.34;;;14.48;100.00
9419;BME280;4748;50.802;7.132;2023-05-11T05:44:06;100853.97;;;14.54;100.00
9419;BME280;4748;50.802;7.132;2023-05-11T05:46:32;100863.47;;;14.56;100.00
9419;BME280;4748;50.802;7.132;2023-05-11T05:48:57;100864.38;;;14.62;100.00
9419;BME280;4748;50.802;7.132;2023-05-11T05:51:23;100868.25;;;14.54;100.00
9419;BME280;4748;50.802;7.132;2023-05-11T05:53:48;100864.75;;;14.54;100.00
9419;BME280;4748;50.802;7.132;2023-05-11T05:56:13;100870.34;;;14.64;100.00
9419;BME280;4748;50.802;7.132;2023-05-11T05:58:39;100870.13;;;14.54;100.00
9419;BME280;4748;50.802;7.132;2023-05-11T06:01:04;100877.00;;;14.61;100.00
9419;BME280;4748;50.802;7.132;2023-05-11T06:03:30;100873.78;;;14.76;100.00
9419;BME280;4748;50.802;7.132;2023-05-11T06:05:55;100875.91;;;14.74;100.00
9419;BME280;4748;50.802;7.132;2023-05-11T06:08:20;100882.16;;;14.90;100.00
9419;BME280;4748;50.802;7.132;2023-05-11T06:10:46;100876.22;;;15.05;100.00
9419;BME280;4748;50.802;7.132;2023-05-11T06:13:11;100883.94;;;15.13;100.00
9419;BME280;4748;50.802;7.132;2023-05-11T06:15:36;100890.44;;;15.17;100.00
9419;BME280;4748;50.802;7.132;2023-05-11T06:18:02;100891.00;;;15.30;100.00
9419;BME280;4748;50.802;7.132;2023-05-11T06:20:27;100883.16;;;15.45;100.00
9419;BME280;4748;50.802;7.132;2023-05-11T06:22:52;100896.06;;;15.59;100.00
9419;BME280;4748;50.802;7.132;2023-05-11T06:25:18;100892.56;;;15.59;100.00
9419;BME280;4748;50.802;7.132;2023-05-11T06:27:44;100886.25;;;15.70;100.00
9419;BME280;4748;50.802;7.132;2023-05-11T06:30:09;100887.75;;;15.98;100.00
9419;BME280;4748;50.802;7.132;2023-05-11T06:32:35;100893.31;;;16.08;100.00
9419;BME280;4748;50.802;7.132;2023-05-11T06:35:00;100891.16;;;16.10;100.00
9419;BME280;4748;50.802;7.132;2023-05-11T06:37:28;100888.16;;;16.23;100.00
9419;BME280;4748;50.802;7.132;2023-05-11T06:39:53;100886.00;;;16.25;100.00
9419;BME280;4748;50.802;7.132;2023-05-11T06:42:19;100891.75;;;16.12;100.00
9419;BME280;4748;50.802;7.132;2023-05-11T06:44:47;100894.56;;;16.01;100.00
9419;BME280;4748;50.802;7.132;2023-05-11T06:47:12;100893.25;;;16.03;100.00
9419;BME280;4748;50.802;7.132;2023-05-11T06:49:38;100896.13;;;16.18;100.00
9419;BME280;4748;50.802;7.132;2023-05-11T06:52:03;100899.75;;;16.07;100.00
9419;BME280;4748;50.802;7.132;2023-05-11T06:54:28;100903.53;;;16.06;100.00
9419;BME280;4748;50.802;7.132;2023-05-11T06:56:54;100913.66;;;15.78;100.00
9419;BME280;4748;50.802;7.132;2023-05-11T06:59:19;100895.66;;;15.83;100.00
9419;BME280;4748;50.802;7.132;2023-05-11T07:01:45;100909.38;;;15.98;100.00
9419;BME280;4748;50.802;7.132;2023-05-11T07:04:10;100900.25;;;16.04;100.00
9419;BME280;4748;50.802;7.132;2023-05-11T07:06:36;100902.47;;;16.07;100.00
9419;BME280;4748;50.802;7.132;2023-05-11T07:09:01;100901.50;;;16.13;100.00
9419;BME280;4748;50.802;7.132;2023-05-11T07:11:29;100902.59;;;16.17;100.00
9419;BME280;4748;50.802;7.132;2023-05-11T07:13:54;100906.88;;;16.30;100.00
9419;BME280;4748;50.802;7.132;2023-05-11T07:16:20;100900.16;;;16.32;100.00
9419;BME280;4748;50.802;7.132;2023-05-11T07:18:45;100902.47;;;16.24;100.00
9419;BME280;4748;50.802;7.132;2023-05-11T07:21:10;100908.41;;;16.26;100.00
9419;BME280;4748;50.802;7.132;2023-05-11T07:23:36;100917.91;;;16.28;100.00
9419;BME280;4748;50.802;7.132;2023-05-11T07:26:01;100911.22;;;16.52;100.00
9419;BME280;4748;50.802;7.132;2023-05-11T07:28:33;100907.38;;;16.48;100.00
9419;BME280;4748;50.802;7.132;2023-05-11T07:30:58;100907.78;;;16.40;100.00
9419;BME280;4748;50.802;7.132;2023-05-11T07:33:23;100903.09;;;16.52;100.00
9419;BME280;4748;50.802;7.132;2023-05-11T07:35:50;100910.81;;;16.65;100.00
9419;BME280;4748;50.802;7.132;2023-05-11T07:38:15;100901.03;;;16.85;100.00
9419;BME280;4748;50.802;7.132;2023-05-11T07:40:42;100911.16;;;16.94;100.00
9419;BME280;4748;50.802;7.132;2023-05-11T07:43:07;100914.84;;;17.10;100.00
9419;BME280;4748;50.802;7.132;2023-05-11T07:45:33;100910.25;;;17.10;100.00
9419;BME280;4748;50.802;7.132;2023-05-11T07:47:58;100916.53;;;16.68;100.00
9419;BME280;4748;50.802;7.132;2023-05-11T07:50:24;100912.44;;;17.13;100.00
9419;BME280;4748;50.802;7.132;2023-05-11T07:52:49;100912.66;;;17.33;100.00
9419;BME280;4748;50.802;7.132;2023-05-11T07:55:14;100913.00;;;17.41;100.00
9419;BME280;4748;50.802;7.132;2023-05-11T07:57:40;100913.59;;;17.80;100.00
9419;BME280;4748;50.802;7.132;2023-05-11T08:00:06;100912.13;;;18.03;100.00
9419;BME280;4748;50.802;7.132;2023-05-11T08:02:32;100907.44;;;18.30;100.00
9419;BME280;4748;50.802;7.132;2023-05-11T08:04:57;100916.16;;;18.42;100.00
9419;BME280;4748;50.802;7.132;2023-05-11T08:07:23;100915.63;;;17.99;100.00
9419;BME280;4748;50.802;7.132;2023-05-11T08:09:48;100916.19;;;18.01;100.00
9419;BME280;4748;50.802;7.132;2023-05-11T08:12:14;100904.06;;;18.13;100.00
9419;BME280;4748;50.802;7.132;2023-05-11T08:14:39;100916.59;;;17.83;100.00
9419;BME280;4748;50.802;7.132;2023-05-11T08:17:07;100913.44;;;17.60;100.00
9419;BME280;4748;50.802;7.132;2023-05-11T08:19:33;100915.31;;;17.95;100.00
9419;BME280;4748;50.802;7.132;2023-05-11T08:21:59;100915.78;;;17.83;100.00
9419;BME280;4748;50.802;7.132;2023-05-11T08:24:25;100917.19;;;18.26;100.00
9419;BME280;4748;50.802;7.132;2023-05-11T08:26:50;100917.75;;;18.33;100.00
9419;BME280;4748;50.802;7.132;2023-05-11T08:29:15;100917.31;;;18.56;100.00
9419;BME280;4748;50.802;7.132;2023-05-11T08:31:41;100924.16;;;18.68;100.00
9419;BME280;4748;50.802;7.132;2023-05-11T08:34:06;100918.97;;;18.57;100.00
9419;BME280;4748;50.802;7.132;2023-05-11T08:36:35;100916.97;;;19.13;100.00
9419;BME280;4748;50.802;7.132;2023-05-11T08:39:01;100913.50;;;19.52;100.00
9419;BME280;4748;50.802;7.132;2023-05-11T08:41:26;100913.22;;;19.69;100.00
9419;BME280;4748;50.802;7.132;2023-05-11T08:43:54;100912.88;;;19.06;100.00
9419;BME280;4748;50.802;7.132;2023-05-11T08:46:22;100912.38;;;19.14;100.00
9419;BME280;4748;50.802;7.132;2023-05-11T08:48:48;100911.84;;;19.37;100.00
9419;BME280;4748;50.802;7.132;2023-05-11T08:51:14;100912.97;;;19.50;100.00
9419;BME280;4748;50.802;7.132;2023-05-11T08:53:40;100918.66;;;19.64;100.00
9419;BME280;4748;50.802;7.132;2023-05-11T08:56:07;100918.38;;;19.70;100.00
9419;BME280;4748;50.802;7.132;2023-05-11T08:58:34;100928.44;;;19.55;100.00
9419;BME280;4748;50.802;7.132;2023-05-11T09:01:03;100919.72;;;19.33;100.00
9419;BME280;4748;50.802;7.132;2023-05-11T09:03:29;100918.13;;;19.62;100.00
9419;BME280;4748;50.802;7.132;2023-05-11T09:05:55;100919.16;;;19.36;100.00
9419;BME280;4748;50.802;7.132;2023-05-11T09:08:21;100925.16;;;19.28;100.00
9419;BME280;4748;50.802;7.132;2023-05-11T09:10:48;100919.72;;;19.63;100.00
9419;BME280;4748;50.802;7.132;2023-05-11T09:13:14;100912.13;;;19.55;100.00
9419;BME280;4748;50.802;7.132;2023-05-11T09:15:40;100921.66;;;19.47;100.00
9419;BME280;4748;50.802;7.132;2023-05-11T09:18:05;100911.03;;;20.00;100.00
9419;BME280;4748;50.802;7.132;2023-05-11T09:20:32;100918.69;;;19.89;100.00
9419;BME280;4748;50.802;7.132;2023-05-11T09:22:58;100921.63;;;19.87;100.00
9419;BME280;4748;50.802;7.132;2023-05-11T09:25:24;100920.28;;;19.70;100.00
9419;BME280;4748;50.802;7.132;2023-05-11T09:27:50;100916.41;;;20.30;100.00
9419;BME280;4748;50.802;7.132;2023-05-11T09:30:17;100913.75;;;20.00;100.00
9419;BME280;4748;50.802;7.132;2023-05-11T09:32:53;100905.78;;;20.34;100.00
9419;BME280;4748;50.802;7.132;2023-05-11T09:37:59;100912.91;;;20.15;100.00
9419;BME280;4748;50.802;7.132;2023-05-11T09:40:28;100906.38;;;20.26;100.00
9419;BME280;4748;50.802;7.132;2023-05-11T09:42:54;100908.78;;;20.32;100.00
9419;BME280;4748;50.802;7.132;2023-05-11T09:45:39;100897.47;;;20.73;100.00
9419;BME280;4748;50.802;7.132;2023-05-11T09:48:09;100910.19;;;20.93;100.00
9419;BME280;4748;50.802;7.132;2023-05-11T09:50:37;100900.38;;;20.97;100.00
9419;BME280;4748;50.802;7.132;2023-05-11T09:53:02;100909.16;;;20.84;100.00
9419;BME280;4748;50.802;7.132;2023-05-11T09:55:28;100903.25;;;20.57;100.00
9419;BME280;4748;50.802;7.132;2023-05-11T09:57:58;100904.06;;;20.62;100.00
9419;BME280;4748;50.802;7.132;2023-05-11T10:00:24;100899.41;;;20.73;100.00
9419;BME280;4748;50.802;7.132;2023-05-11T10:03:04;100902.06;;;20.83;100.00
9419;BME280;4748;50.802;7.132;2023-05-11T10:05:31;100892.38;;;20.57;100.00
9419;BME280;4748;50.802;7.132;2023-05-11T10:07:58;100889.66;;;20.57;100.00
9419;BME280;4748;50.802;7.132;2023-05-11T10:10:25;100887.88;;;20.86;100.00
9419;BME280;4748;50.802;7.132;2023-05-11T10:12:52;100888.91;;;21.00;100.00
9419;BME280;4748;50.802;7.132;2023-05-11T10:15:18;100891.50;;;21.14;100.00
9419;BME280;4748;50.802;7.132;2023-05-11T10:17:52;100886.53;;;20.83;100.00
9419;BME280;4748;50.802;7.132;2023-05-11T10:20:19;100889.13;;;21.03;100.00
9419;BME280;4748;50.802;7.132;2023-05-11T10:22:44;100886.13;;;21.43;100.00
9419;BME280;4748;50.802;7.132;2023-05-11T10:25:10;100879.91;;;20.99;100.00
9419;BME280;4748;50.802;7.132;2023-05-11T10:27:36;100882.19;;;21.25;100.00
9419;BME280;4748;50.802;7.132;2023-05-11T10:30:02;100872.00;;;21.36;100.00
9419;BME280;4748;50.802;7.132;2023-05-11T10:32:29;100879.78;;;20.76;100.00
9419;BME280;4748;50.802;7.132;2023-05-11T10:34:55;100876.72;;;21.25;100.00
9419;BME280;4748;50.802;7.132;2023-05-11T10:37:21;100872.13;;;21.59;100.00
9419;BME280;4748;50.802;7.132;2023-05-11T10:39:47;100878.53;;;21.40;100.00
9419;BME280;4748;50.802;7.132;2023-05-11T10:47:50;100874.06;;;21.20;100.00
9419;BME280;4748;50.802;7.132;2023-05-11T10:50:32;100877.22;;;21.32;100.00
9419;BME280;4748;50.802;7.132;2023-05-11T11:03:59;100867.84;;;21.48;100.00
9419;BME280;4748;50.802;7.132;2023-05-11T11:06:27;100863.63;;;21.27;100.00
9419;BME280;4748;50.802;7.132;2023-05-11T11:09:02;100869.28;;;21.36;100.00
9419;BME280;4748;50.802;7.132;2023-05-11T11:11:40;100867.47;;;21.59;100.00
9419;BME280;4748;50.802;7.132;2023-05-11T11:14:08;100866.91;;;21.29;100.00
9419;BME280;4748;50.802;7.132;2023-05-11T11:16:38;100867.91;;;21.05;100.00
9419;BME280;4748;50.802;7.132;2023-05-11T11:21:58;100872.31;;;20.33;100.00
9419;BME280;4748;50.802;7.132;2023-05-11T11:27:02;100863.56;;;20.51;100.00
9419;BME280;4748;50.802;7.132;2023-05-11T11:29:28;100873.72;;;20.26;100.00
9419;BME280;4748;50.802;7.132;2023-05-11T11:31:54;100863.66;;;20.31;100.00
9419;BME280;4748;50.802;7.132;2023-05-11T11:39:20;100863.09;;;20.34;100.00
9419;BME280;4748;50.802;7.132;2023-05-11T11:42:01;100859.47;;;20.48;100.00
9419;BME280;4748;50.802;7.132;2023-05-11T11:44:27;100859.16;;;20.55;100.00
9419;BME280;4748;50.802;7.132;2023-05-11T11:50:09;100854.16;;;20.82;100.00
9419;BME280;4748;50.802;7.132;2023-05-11T11:52:35;100851.91;;;20.94;100.00
9419;BME280;4748;50.802;7.132;2023-05-11T11:55:02;100851.34;;;20.97;100.00
9419;BME280;4748;50.802;7.132;2023-05-11T11:59:57;100851.50;;;20.62;100.00
9419;BME280;4748;50.802;7.132;2023-05-11T12:02:23;100855.31;;;20.71;100.00
9419;BME280;4748;50.802;7.132;2023-05-11T12:07:23;100855.34;;;20.61;100.00
9419;BME280;4748;50.802;7.132;2023-05-11T12:09:49;100859.16;;;20.60;100.00
9419;BME280;4748;50.802;7.132;2023-05-11T12:12:17;100852.03;;;20.74;100.00
9419;BME280;4748;50.802;7.132;2023-05-11T12:14:44;100847.56;;;20.88;100.00
9419;BME280;4748;50.802;7.132;2023-05-11T12:17:13;100848.97;;;20.85;100.00
9419;BME280;4748;50.802;7.132;2023-05-11T12:19:41;100841.03;;;20.94;100.00
9419;BME280;4748;50.802;7.132;2023-05-11T12:22:07;100849.78;;;20.86;100.00
9419;BME280;4748;50.802;7.132;2023-05-11T12:24:36;100843.53;;;20.85;100.00
9419;BME280;4748;50.802;7.132;2023-05-11T12:27:02;100839.50;;;20.73;100.00
9419;BME280;4748;50.802;7.132;2023-05-11T12:29:29;100841.94;;;20.79;100.00
9419;BME280;4748;50.802;7.132;2023-05-11T12:31:54;100833.72;;;20.89;100.00
9419;BME280;4748;50.802;7.132;2023-05-11T12:34:20;100837.81;;;21.20;100.00
9419;BME280;4748;50.802;7.132;2023-05-11T12:36:50;100837.53;;;21.21;100.00
9419;BME280;4748;50.802;7.132;2023-05-11T12:39:24;100828.56;;;21.16;100.00
9419;BME280;4748;50.802;7.132;2023-05-11T12:41:51;100828.25;;;20.89;100.00
9419;BME280;4748;50.802;7.132;2023-05-11T12:44:18;100832.03;;;20.93;100.00
9419;BME280;4748;50.802;7.132;2023-05-11T12:46:48;100830.34;;;21.02;100.00
9419;BME280;4748;50.802;7.132;2023-05-11T12:49:18;100823.88;;;21.26;100.00
9419;BME280;4748;50.802;7.132;2023-05-11T12:51:49;100828.09;;;21.42;100.00
9419;BME280;4748;50.802;7.132;2023-05-11T12:54:31;100823.00;;;21.64;100.00
9419;BME280;4748;50.802;7.132;2023-05-11T12:56:57;100827.75;;;21.53;100.00
9419;BME280;4748;50.802;7.132;2023-05-11T12:59:33;100818.84;;;21.43;100.00
9419;BME280;4748;50.802;7.132;2023-05-11T13:02:11;100820.78;;;21.38;100.00
9419;BME280;4748;50.802;7.132;2023-05-11T13:04:38;100813.84;;;21.22;100.00
9419;BME280;4748;50.802;7.132;2023-05-11T13:07:04;100809.88;;;21.38;100.00
9419;BME280;4748;50.802;7.132;2023-05-11T13:09:29;100811.16;;;21.50;100.00
9419;BME280;4748;50.802;7.132;2023-05-11T13:12:15;100815.63;;;21.36;100.00
9419;BME280;4748;50.802;7.132;2023-05-11T13:14:50;100810.97;;;21.37;100.00
9419;BME280;4748;50.802;7.132;2023-05-11T13:17:35;100799.75;;;21.43;100.00
9419;BME280;4748;50.802;7.132;2023-05-11T13:22:41;100807.47;;;21.31;100.00
9419;BME280;4748;50.802;7.132;2023-05-11T13:25:07;100806.88;;;21.39;100.00
9419;BME280;4748;50.802;7.132;2023-05-11T13:27:36;100809.22;;;21.17;100.00
9419;BME280;4748;50.802;7.132;2023-05-11T13:30:05;100808.19;;;21.13;100.00
9419;BME280;4748;50.802;7.132;2023-05-11T13:32:30;100810.78;;;21.28;100.00
9419;BME280;4748;50.802;7.132;2023-05-11T13:34:55;100806.78;;;21.16;100.00
9419;BME280;4748;50.802;7.132;2023-05-11T13:37:21;100803.19;;;20.92;100.00
9419;BME280;4748;50.802;7.132;2023-05-11T13:39:46;100800.97;;;20.51;100.00
9419;BME280;4748;50.802;7.132;2023-05-11T13:42:12;100806.38;;;20.56;100.00
9419;BME280;4748;50.802;7.132;2023-05-11T13:44:37;100801.97;;;20.70;100.00
9419;BME280;4748;50.802;7.132;2023-05-11T13:47:02;100805.78;;;20.64;100.00